To NAV CANADA Home Page Login to a new session Search on AWWS site Disclaimer Vers la page française équivalente Tips FAQ What's new on the site To the Forecasts and Observations / NOTAM section To "File a Flight Plan" website Publications and other links Update of the User's profile FIC Telephone Numbers My Weather Data Folder Route Weather Data Regional Weather Data Local Weather Data To the Forecasts and Observations / NOTAM section
Request Generated 11/13/2018 at 18:05:00 UTC . Weather information available at that time is displayed.

METAR/TAF

SCHEFFERVILLE/QC    (show WxCam)

METAR CYKL 131800Z AUTO 19009KT 9SM -SN OVC015 M10/M12 A2988 RMK SLP162=
METAR CYKL 131700Z AUTO 22005KT 9SM -SN OVC019 M10/M12 A2989 RMK SLP167=
METAR CYKL 131600Z AUTO 23006KT 9SM -SN OVC011 M11/M12 A2992 RMK SLP177=

TAF AMD CYKL 131513Z 1315/1402 VRB03KT 4SM -SN OVC009 TEMPO 1315/1320
P6SM NSW SCT009 BKN090
FM132000 17008KT 5SM -SN OVC015 TEMPO 1320/1401 P6SM NSW SCT015
OVC025 PROB30 1320/1401 3SM -SN BKN007 OVC015
FM140100 17008KT 2SM -SN OVC015
RMK FCST BASED ON AUTO OBS. NXT FCST BY 132000Z=
Your time UTC time
Weather data provided by Environment Canada and NAV CANADA